sensor_id;sensor_type;location;lat;lon;timestamp;pressure;altitude;pressure_sealevel;temperature;humidity
3434;BME280;1730;41.932;25.548;2022-12-18T00:01:30;103601.91;;;12.82;100.00
3434;BME280;1730;41.932;25.548;2022-12-18T00:03:57;103631.25;;;12.94;100.00
3434;BME280;1730;41.932;25.548;2022-12-18T00:06:23;103655.62;;;12.94;100.00
3434;BME280;1730;41.932;25.548;2022-12-18T00:08:49;103665.09;;;12.83;100.00
3434;BME280;1730;41.932;25.548;2022-12-18T00:11:17;103600.19;;;12.36;100.00
3434;BME280;1730;41.932;25.548;2022-12-18T00:13:43;103703.81;;;13.08;100.00
3434;BME280;1730;41.932;25.548;2022-12-18T00:16:11;103672.34;;;13.04;100.00
3434;BME280;1730;41.932;25.548;2022-12-18T00:18:37;103657.50;;;12.92;100.00
3434;BME280;1730;41.932;25.548;2022-12-18T00:21:05;103209.66;;;10.14;100.00
3434;BME280;1730;41.932;25.548;2022-12-18T00:23:34;103668.75;;;12.82;100.00
3434;BME280;1730;41.932;25.548;2022-12-18T00:26:02;103739.53;;;12.96;100.00
3434;BME280;1730;41.932;25.548;2022-12-18T00:28:28;103768.34;;;12.98;100.00
3434;BME280;1730;41.932;25.548;2022-12-18T00:31:08;103790.53;;;13.08;100.00
3434;BME280;1730;41.932;25.548;2022-12-18T00:33:34;103435.47;;;11.12;100.00
3434;BME280;1730;41.932;25.548;2022-12-18T00:36:11;103753.44;;;13.10;100.00
3434;BME280;1730;41.932;25.548;2022-12-18T00:38:38;103723.84;;;13.04;100.00
3434;BME280;1730;41.932;25.548;2022-12-18T00:41:04;103695.47;;;12.91;100.00
3434;BME280;1730;41.932;25.548;2022-12-18T00:43:30;103706.50;;;12.86;100.00
3434;BME280;1730;41.932;25.548;2022-12-18T00:45:55;103273.38;;;9.91;100.00
3434;BME280;1730;41.932;25.548;2022-12-18T00:48:22;103760.41;;;12.71;100.00
3434;BME280;1730;41.932;25.548;2022-12-18T00:50:48;103823.97;;;12.60;100.00
3434;BME280;1730;41.932;25.548;2022-12-18T00:53:14;103893.00;;;12.74;100.00
3434;BME280;1730;41.932;25.548;2022-12-18T00:55:41;103872.91;;;12.30;100.00
3434;BME280;1730;41.932;25.548;2022-12-18T00:58:07;103977.53;;;12.83;100.00
3434;BME280;1730;41.932;25.548;2022-12-18T01:00:33;103968.69;;;12.78;100.00
3434;BME280;1730;41.932;25.548;2022-12-18T01:02:59;103698.09;;;11.22;100.00
3434;BME280;1730;41.932;25.548;2022-12-18T01:05:25;103963.16;;;12.81;100.00
3434;BME280;1730;41.932;25.548;2022-12-18T01:07:51;103954.53;;;12.70;100.00
3434;BME280;1730;41.932;25.548;2022-12-18T01:10:16;103991.59;;;12.94;100.00
3434;BME280;1730;41.932;25.548;2022-12-18T01:12:43;103668.47;;;11.19;100.00
3434;BME280;1730;41.932;25.548;2022-12-18T01:15:09;103958.63;;;12.82;100.00
3434;BME280;1730;41.932;25.548;2022-12-18T01:17:35;103955.28;;;12.74;100.00
3434;BME280;1730;41.932;25.548;2022-12-18T01:20:01;103974.09;;;12.78;100.00
3434;BME280;1730;41.932;25.548;2022-12-18T01:22:27;103979.06;;;12.65;100.00
3434;BME280;1730;41.932;25.548;2022-12-18T01:24:52;103971.13;;;12.59;100.00
3434;BME280;1730;41.932;25.548;2022-12-18T01:27:18;104004.81;;;12.77;100.00
3434;BME280;1730;41.932;25.548;2022-12-18T01:29:43;103977.38;;;12.63;100.00
3434;BME280;1730;41.932;25.548;2022-12-18T01:32:09;103384.53;;;9.13;100.00
3434;BME280;1730;41.932;25.548;2022-12-18T01:34:38;104044.69;;;12.74;100.00
3434;BME280;1730;41.932;25.548;2022-12-18T01:37:04;103970.78;;;12.17;100.00
3434;BME280;1730;41.932;25.548;2022-12-18T01:39:31;104075.09;;;12.82;100.00
3434;BME280;1730;41.932;25.548;2022-12-18T01:42:02;103971.06;;;12.36;100.00
3434;BME280;1730;41.932;25.548;2022-12-18T01:47:21;103984.00;;;12.79;100.00
3434;BME280;1730;41.932;25.548;2022-12-18T01:49:49;103838.31;;;11.87;100.00
3434;BME280;1730;41.932;25.548;2022-12-18T01:52:15;103983.62;;;12.90;100.00
3434;BME280;1730;41.932;25.548;2022-12-18T01:54:42;103926.88;;;12.60;100.00
3434;BME280;1730;41.932;25.548;2022-12-18T01:57:08;103890.50;;;12.43;100.00
3434;BME280;1730;41.932;25.548;2022-12-18T01:59:35;103639.59;;;10.93;100.00
3434;BME280;1730;41.932;25.548;2022-12-18T02:02:02;103901.66;;;12.34;100.00
3434;BME280;1730;41.932;25.548;2022-12-18T02:04:28;103864.44;;;11.88;100.00
3434;BME280;1730;41.932;25.548;2022-12-18T02:07:10;104062.75;;;12.73;100.00
3434;BME280;1730;41.932;25.548;2022-12-18T02:09:52;104074.56;;;12.72;100.00
3434;BME280;1730;41.932;25.548;2022-12-18T02:12:23;104128.19;;;12.89;100.00
3434;BME280;1730;41.932;25.548;2022-12-18T02:17:41;104157.69;;;12.98;100.00
3434;BME280;1730;41.932;25.548;2022-12-18T02:20:16;104142.66;;;12.88;100.00
3434;BME280;1730;41.932;25.548;2022-12-18T02:26:15;104183.81;;;12.99;100.00
3434;BME280;1730;41.932;25.548;2022-12-18T02:28:53;104187.41;;;12.99;100.00
3434;BME280;1730;41.932;25.548;2022-12-18T02:31:27;104153.78;;;12.79;100.00
3434;BME280;1730;41.932;25.548;2022-12-18T02:33:55;104127.50;;;12.25;100.00
3434;BME280;1730;41.932;25.548;2022-12-18T02:36:22;103953.22;;;11.13;100.00
3434;BME280;1730;41.932;25.548;2022-12-18T02:38:50;104035.53;;;11.63;100.00
3434;BME280;1730;41.932;25.548;2022-12-18T02:41:17;104311.47;;;13.21;100.00
3434;BME280;1730;41.932;25.548;2022-12-18T02:43:48;104199.34;;;12.66;100.00
3434;BME280;1730;41.932;25.548;2022-12-18T02:46:33;104305.53;;;13.36;100.00
3434;BME280;1730;41.932;25.548;2022-12-18T02:49:14;104269.53;;;13.31;100.00
3434;BME280;1730;41.932;25.548;2022-12-18T02:52:26;104213.22;;;13.13;100.00
3434;BME280;1730;41.932;25.548;2022-12-18T02:54:54;104232.47;;;13.31;100.00
3434;BME280;1730;41.932;25.548;2022-12-18T03:05:20;103838.97;;;11.39;100.00
3434;BME280;1730;41.932;25.548;2022-12-18T03:07:55;104038.19;;;12.53;100.00
3434;BME280;1730;41.932;25.548;2022-12-18T03:10:26;104152.75;;;13.11;100.00
3434;BME280;1730;41.932;25.548;2022-12-18T03:13:06;104175.19;;;13.16;100.00
3434;BME280;1730;41.932;25.548;2022-12-18T03:15:39;104166.97;;;13.17;100.00
3434;BME280;1730;41.932;25.548;2022-12-18T03:18:16;104172.41;;;13.17;100.00
3434;BME280;1730;41.932;25.548;2022-12-18T03:20:44;104132.50;;;12.94;100.00
3434;BME280;1730;41.932;25.548;2022-12-18T03:23:20;104160.16;;;13.04;100.00
3434;BME280;1730;41.932;25.548;2022-12-18T03:25:49;104061.13;;;12.41;100.00
3434;BME280;1730;41.932;25.548;2022-12-18T03:28:20;104204.41;;;13.04;100.00
3434;BME280;1730;41.932;25.548;2022-12-18T03:30:47;104219.00;;;13.00;100.00
3434;BME280;1730;41.932;25.548;2022-12-18T03:33:19;104211.38;;;12.85;100.00
3434;BME280;1730;41.932;25.548;2022-12-18T03:35:46;104211.47;;;12.53;100.00
3434;BME280;1730;41.932;25.548;2022-12-18T03:38:12;104310.41;;;12.95;100.00
3434;BME280;1730;41.932;25.548;2022-12-18T03:41:41;103825.66;;;10.07;100.00
3434;BME280;1730;41.932;25.548;2022-12-18T03:43:55;104307.19;;;12.83;100.00
3434;BME280;1730;41.932;25.548;2022-12-18T03:47:07;104246.44;;;12.31;100.00
3434;BME280;1730;41.932;25.548;2022-12-18T03:49:57;104368.66;;;12.81;100.00
3434;BME280;1730;41.932;25.548;2022-12-18T03:52:38;104403.91;;;12.79;100.00
3434;BME280;1730;41.932;25.548;2022-12-18T03:55:07;104428.72;;;12.64;100.00
3434;BME280;1730;41.932;25.548;2022-12-18T03:57:35;104426.78;;;12.35;100.00
3434;BME280;1730;41.932;25.548;2022-12-18T04:00:11;104546.13;;;12.63;100.00
3434;BME280;1730;41.932;25.548;2022-12-18T04:02:41;104503.44;;;12.00;100.00
3434;BME280;1730;41.932;25.548;2022-12-18T04:05:08;104643.81;;;12.55;100.00
3434;BME280;1730;41.932;25.548;2022-12-18T04:07:36;104124.09;;;9.17;100.00
3434;BME280;1730;41.932;25.548;2022-12-18T04:10:03;104789.94;;;12.61;100.00
3434;BME280;1730;41.932;25.548;2022-12-18T04:12:31;104288.97;;;9.39;100.00
3434;BME280;1730;41.932;25.548;2022-12-18T04:14:56;104886.66;;;12.55;100.00
3434;BME280;1730;41.932;25.548;2022-12-18T04:17:22;104955.84;;;12.74;100.00
3434;BME280;1730;41.932;25.548;2022-12-18T04:19:49;104990.88;;;12.83;100.00
3434;BME280;1730;41.932;25.548;2022-12-18T04:22:15;105023.31;;;12.89;100.00
3434;BME280;1730;41.932;25.548;2022-12-18T04:24:40;105003.69;;;12.77;100.00
3434;BME280;1730;41.932;25.548;2022-12-18T04:27:06;104885.84;;;12.02;100.00
3434;BME280;1730;41.932;25.548;2022-12-18T04:29:31;104614.31;;;10.58;100.00
3434;BME280;1730;41.932;25.548;2022-12-18T04:31:57;104967.41;;;12.84;100.00
3434;BME280;1730;41.932;25.548;2022-12-18T04:34:22;104709.09;;;11.53;100.00
3434;BME280;1730;41.932;25.548;2022-12-18T04:36:48;104948.81;;;13.12;100.00
3434;BME280;1730;41.932;25.548;2022-12-18T04:39:14;104920.75;;;13.13;100.00
3434;BME280;1730;41.932;25.548;2022-12-18T04:41:39;104924.06;;;13.25;100.00
3434;BME280;1730;41.932;25.548;2022-12-18T04:44:06;104636.41;;;11.84;100.00
3434;BME280;1730;41.932;25.548;2022-12-18T04:46:32;104525.81;;;11.24;100.00
3434;BME280;1730;41.932;25.548;2022-12-18T04:48:57;104860.19;;;13.14;100.00
3434;BME280;1730;41.932;25.548;2022-12-18T04:51:23;104523.19;;;11.19;100.00
3434;BME280;1730;41.932;25.548;2022-12-18T04:53:49;104752.81;;;12.67;100.00
3434;BME280;1730;41.932;25.548;2022-12-18T04:56:15;104794.34;;;13.07;100.00
3434;BME280;1730;41.932;25.548;2022-12-18T04:58:43;104838.38;;;13.20;100.00
3434;BME280;1730;41.932;25.548;2022-12-18T05:01:10;104844.56;;;13.25;100.00
3434;BME280;1730;41.932;25.548;2022-12-18T05:03:36;104825.84;;;13.13;100.00
3434;BME280;1730;41.932;25.548;2022-12-18T05:06:03;104752.72;;;12.71;100.00
3434;BME280;1730;41.932;25.548;2022-12-18T05:08:29;104579.31;;;11.96;100.00
3434;BME280;1730;41.932;25.548;2022-12-18T05:11:03;104768.03;;;13.12;100.00
3434;BME280;1730;41.932;25.548;2022-12-18T05:13:30;104768.81;;;13.17;100.00
3434;BME280;1730;41.932;25.548;2022-12-18T05:15:56;104766.97;;;13.19;100.00
3434;BME280;1730;41.932;25.548;2022-12-18T05:18:25;104758.94;;;13.16;100.00
3434;BME280;1730;41.932;25.548;2022-12-18T05:20:52;104779.63;;;13.20;100.00
3434;BME280;1730;41.932;25.548;2022-12-18T05:23:19;104766.25;;;13.09;100.00
3434;BME280;1730;41.932;25.548;2022-12-18T05:25:52;104811.88;;;13.31;100.00
3434;BME280;1730;41.932;25.548;2022-12-18T05:28:19;104782.31;;;13.20;100.00
3434;BME280;1730;41.932;25.548;2022-12-18T05:30:48;104766.19;;;13.14;100.00
3434;BME280;1730;41.932;25.548;2022-12-18T05:33:14;104808.16;;;13.35;100.00
3434;BME280;1730;41.932;25.548;2022-12-18T05:35:40;104816.75;;;13.53;100.00
3434;BME280;1730;41.932;25.548;2022-12-18T05:38:06;104743.12;;;13.33;100.00
3434;BME280;1730;41.932;25.548;2022-12-18T05:40:31;104732.09;;;13.39;100.00
3434;BME280;1730;41.932;25.548;2022-12-18T05:42:57;104708.78;;;13.34;100.00
3434;BME280;1730;41.932;25.548;2022-12-18T05:45:22;104695.38;;;13.26;100.00
3434;BME280;1730;41.932;25.548;2022-12-18T05:47:48;104713.66;;;13.18;100.00
3434;BME280;1730;41.932;25.548;2022-12-18T05:50:13;104325.78;;;10.87;100.00
3434;BME280;1730;41.932;25.548;2022-12-18T05:52:39;104630.47;;;12.48;100.00
3434;BME280;1730;41.932;25.548;2022-12-18T05:55:04;104789.59;;;13.18;100.00
3434;BME280;1730;41.932;25.548;2022-12-18T05:57:30;104819.19;;;13.27;100.00
3434;BME280;1730;41.932;25.548;2022-12-18T05:59:55;104820.38;;;13.16;100.00
3434;BME280;1730;41.932;25.548;2022-12-18T06:02:21;104748.34;;;12.64;100.00
3434;BME280;1730;41.932;25.548;2022-12-18T06:04:46;104890.37;;;13.37;100.00
3434;BME280;1730;41.932;25.548;2022-12-18T06:07:12;104865.28;;;13.27;100.00
3434;BME280;1730;41.932;25.548;2022-12-18T06:09:37;104744.72;;;12.65;100.00
3434;BME280;1730;41.932;25.548;2022-12-18T06:12:03;104531.44;;;11.58;100.00
3434;BME280;1730;41.932;25.548;2022-12-18T06:14:29;104812.69;;;13.34;100.00
3434;BME280;1730;41.932;25.548;2022-12-18T06:16:54;104741.75;;;13.16;100.00
3434;BME280;1730;41.932;25.548;2022-12-18T06:19:20;104620.00;;;12.70;100.00
3434;BME280;1730;41.932;25.548;2022-12-18T06:21:45;104703.19;;;13.38;100.00
3434;BME280;1730;41.932;25.548;2022-12-18T06:24:11;104674.38;;;13.34;100.00
3434;BME280;1730;41.932;25.548;2022-12-18T06:26:38;104648.00;;;13.41;100.00
3434;BME280;1730;41.932;25.548;2022-12-18T06:29:05;104589.63;;;13.26;100.00
3434;BME280;1730;41.932;25.548;2022-12-18T06:31:30;104390.81;;;12.30;100.00
3434;BME280;1730;41.932;25.548;2022-12-18T06:33:56;104516.62;;;13.20;100.00
3434;BME280;1730;41.932;25.548;2022-12-18T06:36:21;104173.22;;;11.39;100.00
3434;BME280;1730;41.932;25.548;2022-12-18T06:38:47;104332.31;;;12.57;100.00
3434;BME280;1730;41.932;25.548;2022-12-18T06:41:18;104400.19;;;13.16;100.00
3434;BME280;1730;41.932;25.548;2022-12-18T06:43:44;104338.50;;;13.22;100.00
3434;BME280;1730;41.932;25.548;2022-12-18T06:46:10;104082.00;;;12.08;100.00
3434;BME280;1730;41.932;25.548;2022-12-18T06:48:36;104191.72;;;13.06;100.00
3434;BME280;1730;41.932;25.548;2022-12-18T06:51:02;104085.78;;;12.86;100.00
3434;BME280;1730;41.932;25.548;2022-12-18T06:53:28;104068.25;;;13.24;100.00
3434;BME280;1730;41.932;25.548;2022-12-18T06:56:02;103485.91;;;10.34;100.00
3434;BME280;1730;41.932;25.548;2022-12-18T06:58:28;103879.91;;;13.11;100.00
3434;BME280;1730;41.932;25.548;2022-12-18T07:00:53;103793.09;;;13.13;100.00
3434;BME280;1730;41.932;25.548;2022-12-18T07:03:19;103342.28;;;11.01;100.00
3434;BME280;1730;41.932;25.548;2022-12-18T07:05:44;103176.31;;;10.18;100.00
3434;BME280;1730;41.932;25.548;2022-12-18T07:08:10;103285.62;;;11.66;100.00
3434;BME280;1730;41.932;25.548;2022-12-18T07:10:44;103126.62;;;11.34;100.00
3434;BME280;1730;41.932;25.548;2022-12-18T07:13:10;103169.66;;;12.20;100.00
3434;BME280;1730;41.932;25.548;2022-12-18T07:15:35;103146.06;;;12.80;100.00
3434;BME280;1730;41.932;25.548;2022-12-18T07:18:01;103017.97;;;12.78;100.00
3434;BME280;1730;41.932;25.548;2022-12-18T07:20:27;102900.47;;;12.81;100.00
3434;BME280;1730;41.932;25.548;2022-12-18T07:22:52;102691.28;;;12.27;100.00
3434;BME280;1730;41.932;25.548;2022-12-18T07:25:18;102571.03;;;12.00;100.00
3434;BME280;1730;41.932;25.548;2022-12-18T07:27:43;102534.00;;;12.17;100.00
3434;BME280;1730;41.932;25.548;2022-12-18T07:30:09;102600.72;;;12.65;100.00
3434;BME280;1730;41.932;25.548;2022-12-18T07:32:35;102268.44;;;10.84;100.00
3434;BME280;1730;41.932;25.548;2022-12-18T07:35:01;102533.56;;;12.25;100.00
3434;BME280;1730;41.932;25.548;2022-12-18T07:37:27;102447.59;;;11.83;100.00
3434;BME280;1730;41.932;25.548;2022-12-18T07:39:52;102573.50;;;12.37;100.00
3434;BME280;1730;41.932;25.548;2022-12-18T07:42:17;102609.69;;;12.35;100.00
3434;BME280;1730;41.932;25.548;2022-12-18T07:44:55;102219.97;;;9.81;100.00
3434;BME280;1730;41.932;25.548;2022-12-18T07:47:21;102699.12;;;12.49;100.00
3434;BME280;1730;41.932;25.548;2022-12-18T07:49:47;102638.25;;;12.07;100.00
3434;BME280;1730;41.932;25.548;2022-12-18T07:52:12;102683.25;;;12.58;100.00
3434;BME280;1730;41.932;25.548;2022-12-18T07:54:38;102277.63;;;10.13;100.00
3434;BME280;1730;41.932;25.548;2022-12-18T07:57:04;102421.34;;;11.02;100.00
3434;BME280;1730;41.932;25.548;2022-12-18T07:59:29;102310.22;;;10.08;100.00
3434;BME280;1730;41.932;25.548;2022-12-18T08:01:55;102680.87;;;12.52;100.00
3434;BME280;1730;41.932;25.548;2022-12-18T08:04:20;102547.00;;;11.61;100.00
3434;BME280;1730;41.932;25.548;2022-12-18T08:06:46;102713.09;;;12.41;100.00
3434;BME280;1730;41.932;25.548;2022-12-18T08:09:12;102694.28;;;12.38;100.00
3434;BME280;1730;41.932;25.548;2022-12-18T08:11:37;102545.41;;;11.57;100.00
3434;BME280;1730;41.932;25.548;2022-12-18T08:14:03;102674.06;;;12.45;100.00
3434;BME280;1730;41.932;25.548;2022-12-18T08:16:29;102664.00;;;12.47;100.00
3434;BME280;1730;41.932;25.548;2022-12-18T08:18:55;102654.50;;;12.56;100.00
3434;BME280;1730;41.932;25.548;2022-12-18T08:21:23;102628.88;;;12.30;100.00
3434;BME280;1730;41.932;25.548;2022-12-18T08:23:51;102627.88;;;12.33;100.00
3434;BME280;1730;41.932;25.548;2022-12-18T08:26:16;102638.69;;;12.48;100.00
3434;BME280;1730;41.932;25.548;2022-12-18T08:28:42;102571.38;;;12.27;100.00
3434;BME280;1730;41.932;25.548;2022-12-18T08:31:08;102570.84;;;11.87;100.00
3434;BME280;1730;41.932;25.548;2022-12-18T08:33:35;102341.44;;;10.65;100.00
3434;BME280;1730;41.932;25.548;2022-12-18T08:36:02;102232.38;;;10.19;100.00
3434;BME280;1730;41.932;25.548;2022-12-18T08:38:27;102545.81;;;12.32;100.00
3434;BME280;1730;41.932;25.548;2022-12-18T08:41:07;102380.56;;;11.57;100.00
3434;BME280;1730;41.932;25.548;2022-12-18T08:43:34;102466.28;;;12.19;100.00
3434;BME280;1730;41.932;25.548;2022-12-18T08:46:19;102457.37;;;12.17;100.00
3434;BME280;1730;41.932;25.548;2022-12-18T08:48:45;102337.56;;;11.68;100.00
3434;BME280;1730;41.932;25.548;2022-12-18T08:51:11;102460.44;;;12.27;100.00
3434;BME280;1730;41.932;25.548;2022-12-18T08:53:37;102301.75;;;11.49;100.00
3434;BME280;1730;41.932;25.548;2022-12-18T08:56:04;102345.06;;;11.47;100.00
3434;BME280;1730;41.932;25.548;2022-12-18T08:58:30;102445.41;;;11.90;100.00
3434;BME280;1730;41.932;25.548;2022-12-18T09:01:04;102246.84;;;10.51;100.00
3434;BME280;1730;41.932;25.548;2022-12-18T09:03:30;102527.00;;;11.98;100.00
3434;BME280;1730;41.932;25.548;2022-12-18T09:05:55;102542.00;;;12.03;100.00
3434;BME280;1730;41.932;25.548;2022-12-18T09:08:21;102457.00;;;11.59;100.00
3434;BME280;1730;41.932;25.548;2022-12-18T09:10:48;102459.63;;;11.60;100.00
3434;BME280;1730;41.932;25.548;2022-12-18T09:13:15;102459.91;;;11.39;100.00
3434;BME280;1730;41.932;25.548;2022-12-18T09:15:49;102447.63;;;11.16;100.00
3434;BME280;1730;41.932;25.548;2022-12-18T09:18:16;102236.16;;;9.98;100.00
3434;BME280;1730;41.932;25.548;2022-12-18T09:20:43;102487.22;;;11.50;100.00
3434;BME280;1730;41.932;25.548;2022-12-18T09:23:09;102523.75;;;12.07;100.00
3434;BME280;1730;41.932;25.548;2022-12-18T09:25:35;102453.09;;;11.97;100.00
3434;BME280;1730;41.932;25.548;2022-12-18T09:28:13;102440.78;;;11.92;100.00
3434;BME280;1730;41.932;25.548;2022-12-18T09:30:45;102436.44;;;12.05;100.00
3434;BME280;1730;41.932;25.548;2022-12-18T09:33:11;102417.31;;;12.08;100.00
3434;BME280;1730;41.932;25.548;2022-12-18T09:35:38;102365.53;;;11.84;100.00
3434;BME280;1730;41.932;25.548;2022-12-18T09:38:04;102307.59;;;11.57;100.00
3434;BME280;1730;41.932;25.548;2022-12-18T09:40:36;102249.09;;;11.71;100.00
3434;BME280;1730;41.932;25.548;2022-12-18T09:43:05;102226.59;;;11.71;100.00
3434;BME280;1730;41.932;25.548;2022-12-18T09:45:53;102233.00;;;12.00;100.00
3434;BME280;1730;41.932;25.548;2022-12-18T09:48:35;102184.50;;;11.97;100.00
3434;BME280;1730;41.932;25.548;2022-12-18T09:51:10;102157.59;;;12.09;100.00
3434;BME280;1730;41.932;25.548;2022-12-18T09:53:38;101881.53;;;10.99;100.00
3434;BME280;1730;41.932;25.548;2022-12-18T09:56:07;102022.25;;;11.97;100.00
3434;BME280;1730;41.932;25.548;2022-12-18T09:58:46;101752.88;;;10.42;100.00
3434;BME280;1730;41.932;25.548;2022-12-18T10:01:19;102070.94;;;12.11;100.00
3434;BME280;1730;41.932;25.548;2022-12-18T10:03:47;102102.62;;;12.09;100.00
3434;BME280;1730;41.932;25.548;2022-12-18T10:06:25;102130.53;;;12.09;100.00
3434;BME280;1730;41.932;25.548;2022-12-18T10:09:02;102145.41;;;12.16;100.00
3434;BME280;1730;41.932;25.548;2022-12-18T10:14:18;102257.50;;;12.27;100.00
3434;BME280;1730;41.932;25.548;2022-12-18T10:19:36;102434.09;;;11.66;100.00
3434;BME280;1730;41.932;25.548;2022-12-18T10:22:34;102582.72;;;11.85;100.00
3434;BME280;1730;41.932;25.548;2022-12-18T10:25:09;102706.69;;;11.75;100.00
3434;BME280;1730;41.932;25.548;2022-12-18T10:27:40;102820.06;;;11.78;100.00
3434;BME280;1730;41.932;25.548;2022-12-18T10:30:18;102795.66;;;11.42;100.00
3434;BME280;1730;41.932;25.548;2022-12-18T10:32:44;102944.56;;;12.12;100.00
3434;BME280;1730;41.932;25.548;2022-12-18T10:35:24;102984.50;;;12.07;100.00
3434;BME280;1730;41.932;25.548;2022-12-18T10:38:21;103036.00;;;11.86;100.00
3434;BME280;1730;41.932;25.548;2022-12-18T10:41:05;103174.16;;;12.20;100.00
3434;BME280;1730;41.932;25.548;2022-12-18T10:43:36;103206.31;;;11.87;100.00
3434;BME280;1730;41.932;25.548;2022-12-18T10:51:23;103165.25;;;10.49;100.00
3434;BME280;1730;41.932;25.548;2022-12-18T10:53:55;103450.59;;;11.64;100.00
3434;BME280;1730;41.932;25.548;2022-12-18T10:56:22;103190.62;;;9.69;100.00
3434;BME280;1730;41.932;25.548;2022-12-18T10:59:04;103482.56;;;11.05;100.00
3434;BME280;1730;41.932;25.548;2022-12-18T11:01:55;103672.78;;;11.77;100.00
3434;BME280;1730;41.932;25.548;2022-12-18T11:04:29;103733.44;;;11.68;100.00
3434;BME280;1730;41.932;25.548;2022-12-18T11:07:13;103699.62;;;11.03;100.00
3434;BME280;1730;41.932;25.548;2022-12-18T11:09:39;103474.31;;;9.44;100.00
3434;BME280;1730;41.932;25.548;2022-12-18T11:12:17;103937.41;;;11.89;100.00
3434;BME280;1730;41.932;25.548;2022-12-18T11:14:51;103857.66;;;11.17;100.00
3434;BME280;1730;41.932;25.548;2022-12-18T11:17:19;104000.31;;;11.66;100.00
3434;BME280;1730;41.932;25.548;2022-12-18T11:19:52;104066.97;;;11.67;100.00
3434;BME280;1730;41.932;25.548;2022-12-18T11:22:33;104140.03;;;11.66;100.00
3434;BME280;1730;41.932;25.548;2022-12-18T11:25:05;104238.94;;;11.76;100.00
3434;BME280;1730;41.932;25.548;2022-12-18T11:27:32;104179.28;;;11.13;100.00
3434;BME280;1730;41.932;25.548;2022-12-18T11:32:48;104390.47;;;11.74;100.00
3434;BME280;1730;41.932;25.548;2022-12-18T11:35:30;104401.59;;;11.59;100.00
3434;BME280;1730;41.932;25.548;2022-12-18T11:38:06;104456.47;;;11.64;100.00
3434;BME280;1730;41.932;25.548;2022-12-18T11:40:40;104498.91;;;11.61;100.00
3434;BME280;1730;41.932;25.548;2022-12-18T11:43:14;104504.72;;;11.41;100.00
3434;BME280;1730;41.932;25.548;2022-12-18T11:45:55;104374.28;;;10.47;100.00
3434;BME280;1730;41.932;25.548;2022-12-18T11:48:28;103935.34;;;7.78;100.00
3434;BME280;1730;41.932;25.548;2022-12-18T11:50:57;104661.66;;;11.83;100.00
3434;BME280;1730;41.932;25.548;2022-12-18T11:53:25;104656.19;;;11.86;100.00
3434;BME280;1730;41.932;25.548;2022-12-18T12:01:52;104596.72;;;11.84;100.00
3434;BME280;1730;41.932;25.548;2022-12-18T12:18:28;104532.78;;;11.80;100.00
3434;BME280;1730;41.932;25.548;2022-12-18T12:23:42;104513.81;;;11.82;100.00
3434;BME280;1730;41.932;25.548;2022-12-18T12:29:25;104420.41;;;11.64;100.00
3434;BME280;1730;41.932;25.548;2022-12-18T12:35:27;104385.84;;;11.78;100.00
3434;BME280;1730;41.932;25.548;2022-12-18T12:38:12;104300.13;;;11.45;100.00
3434;BME280;1730;41.932;25.548;2022-12-18T12:41:04;104285.50;;;11.52;100.00
3434;BME280;1730;41.932;25.548;2022-12-18T12:43:41;104237.03;;;11.09;100.00
3434;BME280;1730;41.932;25.548;2022-12-18T12:46:12;104278.88;;;11.28;100.00
3434;BME280;1730;41.932;25.548;2022-12-18T12:48:49;104296.34;;;11.50;100.00
3434;BME280;1730;41.932;25.548;2022-12-18T12:51:19;104010.25;;;9.95;100.00
3434;BME280;1730;41.932;25.548;2022-12-18T12:53:47;104184.94;;;11.02;100.00
3434;BME280;1730;41.932;25.548;2022-12-18T12:56:16;104210.25;;;11.35;100.00
3434;BME280;1730;41.932;25.548;2022-12-18T12:58:49;104213.41;;;11.52;100.00
3434;BME280;1730;41.932;25.548;2022-12-18T13:01:35;104150.91;;;11.30;100.00
3434;BME280;1730;41.932;25.548;2022-12-18T13:06:43;103901.37;;;10.68;100.00
3434;BME280;1730;41.932;25.548;2022-12-18T13:09:11;103764.88;;;10.60;100.00
3434;BME280;1730;41.932;25.548;2022-12-18T13:11:40;103601.34;;;10.23;100.00
3434;BME280;1730;41.932;25.548;2022-12-18T13:19:40;103366.31;;;10.59;100.00
3434;BME280;1730;41.932;25.548;2022-12-18T13:22:24;103368.41;;;10.75;100.00
3434;BME280;1730;41.932;25.548;2022-12-18T13:24:50;103232.16;;;10.39;100.00
3434;BME280;1730;41.932;25.548;2022-12-18T13:41:04;103428.84;;;10.71;100.00
3434;BME280;1730;41.932;25.548;2022-12-18T13:43:51;103386.56;;;10.21;100.00
3434;BME280;1730;41.932;25.548;2022-12-18T13:46:57;103546.84;;;10.68;100.00
3434;BME280;1730;41.932;25.548;2022-12-18T13:49:38;103619.81;;;10.93;100.00
3434;BME280;1730;41.932;25.548;2022-12-18T13:52:44;103625.75;;;10.77;100.00
3434;BME280;1730;41.932;25.548;2022-12-18T13:55:16;103670.06;;;10.98;100.00
3434;BME280;1730;41.932;25.548;2022-12-18T13:57:43;103644.78;;;10.73;100.00
3434;BME280;1730;41.932;25.548;2022-12-18T14:02:45;103328.56;;;8.32;100.00
3434;BME280;1730;41.932;25.548;2022-12-18T14:05:31;103742.00;;;10.42;100.00
3434;BME280;1730;41.932;25.548;2022-12-18T14:08:16;103772.69;;;10.38;100.00
3434;BME280;1730;41.932;25.548;2022-12-18T14:10:44;103651.94;;;9.52;100.00
3434;BME280;1730;41.932;25.548;2022-12-18T14:13:15;103613.63;;;9.05;100.00
3434;BME280;1730;41.932;25.548;2022-12-18T14:15:46;103814.44;;;9.89;100.00
3434;BME280;1730;41.932;25.548;2022-12-18T14:18:20;103638.91;;;8.62;100.00
3434;BME280;1730;41.932;25.548;2022-12-18T14:20:48;103612.91;;;8.21;100.00
3434;BME280;1730;41.932;25.548;2022-12-18T14:23:47;103982.13;;;10.05;100.00
3434;BME280;1730;41.932;25.548;2022-12-18T14:26:28;103964.66;;;9.83;100.00
3434;BME280;1730;41.932;25.548;2022-12-18T14:29:00;104043.72;;;10.26;100.00
3434;BME280;1730;41.932;25.548;2022-12-18T14:31:30;104011.69;;;10.10;100.00